createdAt,value
2023-04-16T00:04:54.067Z,9.37
2023-04-16T00:09:54.011Z,9.37
2023-04-16T00:14:53.972Z,9.35
2023-04-16T00:19:53.928Z,9.32
2023-04-16T00:24:53.945Z,9.27
2023-04-16T00:29:53.853Z,9.30
2023-04-16T00:34:53.820Z,9.23
2023-04-16T00:39:53.782Z,9.20
2023-04-16T00:44:53.752Z,9.19
2023-04-16T00:49:53.726Z,9.17
2023-04-16T00:54:53.685Z,9.15
2023-04-16T00:59:53.638Z,9.10
2023-04-16T01:04:53.609Z,9.06
2023-04-16T01:09:53.544Z,9.04
2023-04-16T01:14:53.563Z,8.97
2023-04-16T01:19:53.518Z,8.97
2023-04-16T01:24:53.475Z,8.96
2023-04-16T01:29:53.436Z,8.96
2023-04-16T01:34:53.410Z,8.93
2023-04-16T01:39:53.376Z,8.91
2023-04-16T01:44:53.334Z,8.89
2023-04-16T01:49:53.302Z,8.89
2023-04-16T01:54:53.293Z,8.88
2023-04-16T01:59:53.238Z,8.88
2023-04-16T02:04:53.232Z,8.83
2023-04-16T02:09:53.197Z,8.83
2023-04-16T02:14:53.150Z,8.80
2023-04-16T02:19:53.144Z,8.78
2023-04-16T02:24:53.128Z,8.76
2023-04-16T02:29:53.098Z,8.73
2023-04-16T02:34:53.052Z,8.70
2023-04-16T02:39:53.053Z,8.68
2023-04-16T02:44:53.008Z,8.67
2023-04-16T02:49:52.961Z,8.67
2023-04-16T02:54:52.917Z,8.67
2023-04-16T02:59:52.873Z,8.65
2023-04-16T03:04:52.870Z,8.63
2023-04-16T03:09:52.820Z,8.61
2023-04-16T03:14:52.794Z,8.57
2023-04-16T03:19:52.735Z,8.58
2023-04-16T03:24:52.748Z,8.58
2023-04-16T03:29:52.702Z,8.50
2023-04-16T03:34:52.670Z,8.46
2023-04-16T03:39:52.624Z,8.46
2023-04-16T03:44:52.579Z,8.45
2023-04-16T03:49:52.521Z,8.39
2023-04-16T03:54:52.521Z,8.37
2023-04-16T03:59:52.477Z,8.29
2023-04-16T04:04:52.545Z,8.27
2023-04-16T04:09:52.456Z,8.22
2023-04-16T04:14:52.404Z,8.24
2023-04-16T04:20:00.953Z,8.24
2023-04-16T04:24:52.345Z,8.21
2023-04-16T04:29:52.326Z,8.25
2023-04-16T04:34:52.297Z,8.21
2023-04-16T04:39:52.245Z,8.21
2023-04-16T04:44:52.229Z,8.21
2023-04-16T04:49:52.182Z,8.18
2023-04-16T04:54:52.138Z,8.20
2023-04-16T04:59:52.089Z,8.20
2023-04-16T05:04:52.103Z,8.14
2023-04-16T05:09:52.003Z,8.18
2023-04-16T05:14:51.961Z,8.14
2023-04-16T05:19:51.957Z,8.18
2023-04-16T05:24:51.956Z,8.20
2023-04-16T05:29:51.886Z,8.18
2023-04-16T05:34:51.877Z,8.21
2023-04-16T05:39:51.879Z,8.21
2023-04-16T05:44:51.845Z,8.21
2023-04-16T05:49:51.800Z,8.21
2023-04-16T05:54:51.780Z,8.25
2023-04-16T05:59:51.733Z,8.28
2023-04-16T06:04:51.688Z,8.27
2023-04-16T06:09:51.642Z,8.28
2023-04-16T06:14:51.602Z,8.27
2023-04-16T06:19:51.555Z,8.36
2023-04-16T06:24:51.513Z,8.39
2023-04-16T06:29:51.486Z,8.40
2023-04-16T06:34:51.519Z,8.43
2023-04-16T06:39:51.457Z,8.40
2023-04-16T06:44:51.449Z,8.37
2023-04-16T06:49:51.418Z,8.39
2023-04-16T06:54:51.405Z,8.40
2023-04-16T06:59:51.375Z,8.43
2023-04-16T07:04:51.316Z,8.43
2023-04-16T07:09:51.267Z,8.52
2023-04-16T07:14:51.217Z,8.55
2023-04-16T07:19:51.184Z,8.57
2023-04-16T07:24:51.147Z,8.57
2023-04-16T07:29:51.097Z,8.55
2023-04-16T07:34:51.092Z,8.54
2023-04-16T07:39:51.032Z,8.61
2023-04-16T07:44:51.047Z,8.65
2023-04-16T07:49:51.000Z,8.57
2023-04-16T07:54:50.969Z,8.61
2023-04-16T07:59:50.931Z,8.70
2023-04-16T08:04:51.013Z,8.78
2023-04-16T08:09:50.877Z,8.80
2023-04-16T08:14:50.875Z,8.71
2023-04-16T08:19:50.852Z,8.73
2023-04-16T08:24:50.814Z,8.79
2023-04-16T08:29:50.784Z,8.89
2023-04-16T08:34:50.754Z,8.97
2023-04-16T08:39:50.739Z,8.97
2023-04-16T08:44:50.655Z,9.01
2023-04-16T08:49:50.611Z,9.08
2023-04-16T08:54:56.665Z,8.98
2023-04-16T08:59:50.537Z,9.04
2023-04-16T09:04:50.559Z,8.96
2023-04-16T09:09:50.507Z,8.94
2023-04-16T09:14:50.491Z,9.03
2023-04-16T09:19:50.413Z,9.06
2023-04-16T09:24:50.370Z,9.01
2023-04-16T09:29:50.332Z,8.97
2023-04-16T09:34:50.325Z,8.98
2023-04-16T09:39:50.279Z,8.98
2023-04-16T09:44:50.239Z,9.03
2023-04-16T09:49:50.222Z,9.24
2023-04-16T09:54:50.191Z,9.41
2023-04-16T09:59:50.174Z,9.50
2023-04-16T10:04:50.470Z,9.77
2023-04-16T10:09:50.095Z,9.77
2023-04-16T10:14:50.386Z,9.88
2023-04-16T10:19:50.032Z,9.93
2023-04-16T10:24:50.023Z,9.83
2023-04-16T10:29:49.973Z,9.65
2023-04-16T10:34:49.948Z,9.56
2023-04-16T10:39:49.912Z,9.73
2023-04-16T10:44:49.891Z,9.59
2023-04-16T10:49:51.779Z,9.58
2023-04-16T10:54:49.848Z,9.45
2023-04-16T10:59:49.842Z,9.38
2023-04-16T11:04:50.209Z,9.56
2023-04-16T11:09:49.799Z,9.60
2023-04-16T11:14:49.733Z,9.70
2023-04-16T11:19:49.725Z,9.65
2023-04-16T11:24:50.133Z,9.75
2023-04-16T11:29:49.607Z,9.83
2023-04-16T11:34:49.574Z,10.10
2023-04-16T11:39:49.556Z,10.02
2023-04-16T11:44:49.540Z,9.95
2023-04-16T11:49:49.503Z,9.96
2023-04-16T11:54:49.474Z,9.98
2023-04-16T12:00:02.563Z,9.98
2023-04-16T12:04:49.566Z,9.99
2023-04-16T12:09:49.378Z,9.99
2023-04-16T12:14:49.352Z,10.16
2023-04-16T12:19:49.325Z,10.01
2023-04-16T12:24:49.335Z,9.95
2023-04-16T12:29:49.279Z,10.01
2023-04-16T12:34:49.754Z,10.04
2023-04-16T12:39:49.207Z,10.17
2023-04-16T12:44:49.222Z,10.24
2023-04-16T12:49:49.163Z,10.44
2023-04-16T12:54:49.151Z,10.39
2023-04-16T12:59:49.106Z,10.47
2023-04-16T13:04:49.160Z,10.28
2023-04-16T13:09:49.030Z,10.22
2023-04-16T13:14:48.989Z,10.36
2023-04-16T13:19:48.948Z,10.49
2023-04-16T13:24:48.935Z,10.44
2023-04-16T13:29:48.879Z,10.38
2023-04-16T13:34:48.888Z,10.36
2023-04-16T13:39:48.834Z,10.47
2023-04-16T13:44:48.799Z,10.44
2023-04-16T13:49:48.748Z,10.29
2023-04-16T13:54:48.736Z,10.09
2023-04-16T13:59:48.718Z,9.86
2023-04-16T14:04:48.714Z,9.88
2023-04-16T14:09:48.686Z,9.91
2023-04-16T14:14:48.654Z,9.86
2023-04-16T14:19:48.588Z,9.80
2023-04-16T14:24:48.564Z,9.91
2023-04-16T14:29:48.544Z,10.06
2023-04-16T14:34:48.516Z,10.11
2023-04-16T14:39:48.482Z,10.16
2023-04-16T14:44:48.447Z,10.20
2023-04-16T14:49:48.389Z,10.29
2023-04-16T14:54:48.354Z,10.39
2023-04-16T14:59:48.335Z,10.46
2023-04-16T15:04:48.315Z,10.42
2023-04-16T15:09:48.349Z,10.32
2023-04-16T15:14:48.276Z,10.32
2023-04-16T15:19:48.193Z,10.31
2023-04-16T15:24:48.168Z,10.29
2023-04-16T15:29:48.187Z,10.34
2023-04-16T15:34:48.100Z,10.35
2023-04-16T15:39:48.059Z,10.36
2023-04-16T15:44:48.033Z,10.36
2023-04-16T15:49:47.999Z,10.38
2023-04-16T15:54:47.994Z,10.36
2023-04-16T16:00:03.240Z,10.28
2023-04-16T16:04:48.013Z,10.25
2023-04-16T16:09:47.898Z,10.17
2023-04-16T16:14:47.879Z,10.10
2023-04-16T16:19:47.859Z,10.01
2023-04-16T16:24:47.818Z,9.96
2023-04-16T16:29:47.777Z,9.93
2023-04-16T16:34:47.752Z,9.91
2023-04-16T16:39:47.729Z,9.86
2023-04-16T16:44:47.701Z,9.83
2023-04-16T16:49:47.670Z,9.78
2023-04-16T16:54:47.620Z,9.77
2023-04-16T16:59:47.575Z,9.75
2023-04-16T17:04:47.527Z,9.74
2023-04-16T17:09:47.531Z,9.74
2023-04-16T17:14:47.461Z,9.74
2023-04-16T17:19:47.463Z,9.73
2023-04-16T17:24:47.452Z,9.73
2023-04-16T17:29:47.442Z,9.65
2023-04-16T17:34:47.395Z,9.67
2023-04-16T17:39:47.393Z,9.65
2023-04-16T17:44:47.363Z,9.67
2023-04-16T17:49:47.366Z,9.67
2023-04-16T17:54:47.366Z,9.63
2023-04-16T17:59:47.339Z,9.56
2023-04-16T18:04:47.637Z,9.52
2023-04-16T18:09:47.337Z,9.53
2023-04-16T18:14:47.255Z,9.48
2023-04-16T18:19:47.242Z,9.48
2023-04-16T18:24:47.220Z,9.42
2023-04-16T18:29:49.250Z,9.38
2023-04-16T18:34:47.168Z,9.37
2023-04-16T18:39:47.123Z,9.35
2023-04-16T18:44:47.235Z,9.32
2023-04-16T18:49:47.092Z,9.27
2023-04-16T18:54:47.049Z,9.26
2023-04-16T18:59:47.052Z,9.23
2023-04-16T19:04:46.989Z,9.20
2023-04-16T19:09:46.974Z,9.22
2023-04-16T19:14:46.882Z,9.16
2023-04-16T19:19:46.855Z,9.15
2023-04-16T19:24:46.820Z,9.13
2023-04-16T19:29:46.806Z,9.10
2023-04-16T19:34:46.729Z,9.08
2023-04-16T19:39:46.712Z,9.06
2023-04-16T19:44:46.671Z,9.06
2023-04-16T19:49:46.635Z,9.03
2023-04-16T19:54:46.569Z,8.98
2023-04-16T19:59:46.565Z,8.94
2023-04-16T20:04:46.547Z,8.83
2023-04-16T20:09:46.549Z,8.75
2023-04-16T20:14:46.513Z,8.70
2023-04-16T20:19:46.497Z,8.67
2023-04-16T20:24:47.781Z,8.64
2023-04-16T20:29:46.475Z,8.61
2023-04-16T20:34:46.469Z,8.57
2023-04-16T20:39:46.443Z,8.54
2023-04-16T20:44:46.406Z,8.52
2023-04-16T20:49:46.438Z,8.52
2023-04-16T20:54:46.324Z,8.46
2023-04-16T20:59:46.309Z,8.43
2023-04-16T21:04:46.372Z,8.42
2023-04-16T21:09:46.209Z,8.43
2023-04-16T21:14:46.179Z,8.42
2023-04-16T21:19:46.138Z,8.39
2023-04-16T21:24:46.093Z,8.32
2023-04-16T21:29:46.104Z,8.24
2023-04-16T21:34:46.062Z,8.20
2023-04-16T21:39:46.016Z,8.21
2023-04-16T21:44:45.963Z,8.13
2023-04-16T21:49:45.954Z,8.09
2023-04-16T21:54:45.981Z,8.09
2023-04-16T21:59:45.920Z,8.09
2023-04-16T22:04:45.913Z,8.03
2023-04-16T22:09:45.896Z,7.99
2023-04-16T22:14:55.739Z,7.96
2023-04-16T22:19:45.796Z,8.00
2023-04-16T22:24:45.728Z,8.02
2023-04-16T22:29:45.714Z,7.96
2023-04-16T22:34:45.670Z,7.94
2023-04-16T22:39:45.624Z,7.92
2023-04-16T22:44:45.567Z,7.88
2023-04-16T22:49:45.553Z,7.86
2023-04-16T22:54:45.502Z,7.85
2023-04-16T22:59:45.495Z,7.84
2023-04-16T23:04:45.442Z,7.82
2023-04-16T23:09:45.424Z,7.81
2023-04-16T23:14:45.403Z,7.81
2023-04-16T23:19:45.392Z,7.77
2023-04-16T23:24:45.356Z,7.77
2023-04-16T23:29:45.344Z,7.76
2023-04-16T23:34:45.290Z,7.76
2023-04-16T23:39:45.274Z,7.76
2023-04-16T23:44:45.255Z,7.69
2023-04-16T23:49:45.244Z,7.70
2023-04-16T23:54:45.199Z,7.69
2023-04-16T23:59:45.180Z,7.60
